createdAt,value
2022-09-14T00:01:36.439Z,99228.91
2022-09-14T00:04:06.328Z,99219.56
2022-09-14T00:06:34.854Z,99228.25
2022-09-14T00:09:03.082Z,99223.50
2022-09-14T00:11:33.465Z,99232.69
2022-09-14T00:14:03.878Z,99229.06
2022-09-14T00:16:35.091Z,99221.22
2022-09-14T00:19:06.469Z,99229.25
2022-09-14T00:21:35.393Z,99216.59
2022-09-14T00:24:03.986Z,99220.19
2022-09-14T00:26:32.309Z,99224.31
2022-09-14T00:29:04.756Z,99222.66
2022-09-14T00:31:35.019Z,99184.38
2022-09-14T00:34:03.906Z,99214.44
2022-09-14T00:36:32.915Z,99218.41
2022-09-14T00:39:01.345Z,99219.03
2022-09-14T00:41:31.916Z,99215.09
2022-09-14T00:44:03.333Z,99211.81
2022-09-14T00:46:33.142Z,99198.03
2022-09-14T00:49:02.393Z,99208.69
2022-09-14T00:51:33.213Z,99207.25
2022-09-14T00:54:03.308Z,99199.34
2022-09-14T00:56:31.837Z,99197.06
2022-09-14T00:59:03.074Z,99198.53
2022-09-14T01:01:31.231Z,99200.50
2022-09-14T01:03:59.411Z,99196.72
2022-09-14T01:06:35.535Z,99196.72
2022-09-14T01:09:15.251Z,99196.25
2022-09-14T01:11:59.725Z,99197.69
2022-09-14T01:14:34.811Z,99183.25
2022-09-14T01:17:07.931Z,99180.78
2022-09-14T01:19:49.781Z,99180.78
2022-09-14T01:22:20.897Z,99177.69
2022-09-14T01:24:52.966Z,99180.13
2022-09-14T01:27:33.932Z,99172.09
2022-09-14T01:30:08.611Z,99160.09
2022-09-14T01:32:41.126Z,99173.09
2022-09-14T01:35:16.142Z,99180.31
2022-09-14T01:37:47.567Z,99176.53
2022-09-14T01:40:19.386Z,99173.25
2022-09-14T01:42:53.507Z,99165.03
2022-09-14T01:45:24.079Z,99164.69
2022-09-14T01:47:56.009Z,99159.44
2022-09-14T01:50:27.231Z,99165.84
2022-09-14T01:52:59.027Z,99163.06
2022-09-14T01:55:29.935Z,99154.00
2022-09-14T01:58:01.640Z,99156.31
2022-09-14T02:00:30.007Z,99147.44
2022-09-14T02:03:02.041Z,99138.25
2022-09-14T02:05:35.764Z,99142.53
2022-09-14T02:08:04.275Z,99150.75
2022-09-14T02:10:32.698Z,99143.66
2022-09-14T02:13:02.325Z,99143.84
2022-09-14T02:15:31.127Z,99143.03
2022-09-14T02:17:59.339Z,99138.59
2022-09-14T02:20:30.447Z,99143.50
2022-09-14T02:22:58.670Z,99143.03
2022-09-14T02:25:26.786Z,99136.13
2022-09-14T02:27:55.642Z,99138.44
2022-09-14T02:30:25.267Z,99136.44
2022-09-14T02:33:02.423Z,99136.78
2022-09-14T02:35:35.731Z,99138.75
2022-09-14T02:38:06.482Z,99136.44
2022-09-14T02:40:37.498Z,99136.13
2022-09-14T02:43:21.187Z,99138.59
2022-09-14T02:45:53.712Z,99132.50
2022-09-14T02:48:26.819Z,99140.56
2022-09-14T02:50:58.978Z,99138.59
2022-09-14T02:53:31.151Z,99117.09
2022-09-14T02:56:01.815Z,99129.41
2022-09-14T02:58:36.005Z,99133.16
2022-09-14T03:01:06.518Z,99136.44
2022-09-14T03:03:35.961Z,99124.28
2022-09-14T03:06:04.778Z,99121.19
2022-09-14T03:08:33.209Z,99119.22
2022-09-14T03:11:01.331Z,99109.69
2022-09-14T03:13:29.682Z,99118.06
2022-09-14T03:15:58.073Z,99112.94
2022-09-14T03:18:27.649Z,99117.72
2022-09-14T03:20:55.923Z,99115.56
2022-09-14T03:23:24.018Z,99126.06
2022-09-14T03:25:52.169Z,99109.31
2022-09-14T03:28:20.357Z,99121.47
2022-09-14T03:30:48.458Z,99105.22
2022-09-14T03:33:16.553Z,99113.09
2022-09-14T03:35:46.236Z,99108.69
2022-09-14T03:38:14.320Z,99100.31
2022-09-14T03:40:42.391Z,99103.09
2022-09-14T03:43:12.596Z,99096.84
2022-09-14T03:45:42.423Z,99104.06
2022-09-14T03:48:15.574Z,99102.56
2022-09-14T03:50:45.209Z,99100.09
2022-09-14T03:53:13.308Z,99107.19
2022-09-14T03:55:42.009Z,99098.50
2022-09-14T03:58:10.129Z,99096.84
2022-09-14T04:00:38.245Z,99104.91
2022-09-14T04:03:06.478Z,99094.50
2022-09-14T04:05:34.636Z,99103.41
2022-09-14T04:08:04.508Z,99096.31
2022-09-14T04:10:32.841Z,99099.28
2022-09-14T04:13:02.060Z,99094.19
2022-09-14T04:15:30.179Z,99098.28
2022-09-14T04:17:58.370Z,99091.88
2022-09-14T04:20:26.660Z,99095.16
2022-09-14T04:22:54.766Z,99096.13
2022-09-14T04:25:24.376Z,99091.88
2022-09-14T04:28:16.810Z,99095.81
2022-09-14T04:30:40.790Z,99084.78
2022-09-14T04:33:08.890Z,99088.41
2022-09-14T04:35:37.844Z,99081.00
2022-09-14T04:38:06.490Z,99084.78
2022-09-14T04:40:36.068Z,99090.19
2022-09-14T04:43:04.202Z,99083.44
2022-09-14T04:45:32.579Z,99086.88
2022-09-14T04:48:00.731Z,99097.41
2022-09-14T04:50:29.061Z,99094.28
2022-09-14T04:52:57.239Z,99100.81
2022-09-14T04:55:25.515Z,99096.06
2022-09-14T04:57:55.104Z,99099.22
2022-09-14T05:00:23.481Z,99094.28
2022-09-14T05:02:51.677Z,99094.63
2022-09-14T05:05:19.979Z,99100.81
2022-09-14T05:07:48.208Z,99101.34
2022-09-14T05:10:16.514Z,99099.72
2022-09-14T05:12:44.674Z,99103.00
2022-09-14T05:15:14.418Z,99097.41
2022-09-14T05:17:42.595Z,99096.75
2022-09-14T05:20:13.557Z,99096.75
2022-09-14T05:22:42.115Z,99088.19
2022-09-14T05:25:11.278Z,99098.00
2022-09-14T05:27:39.413Z,99085.38
2022-09-14T05:30:08.952Z,99095.72
2022-09-14T05:32:38.450Z,99102.25
2022-09-14T05:35:07.411Z,99100.75
2022-09-14T05:37:35.699Z,99110.47
2022-09-14T05:40:07.752Z,99108.16
2022-09-14T05:42:36.253Z,99106.34
2022-09-14T05:45:04.630Z,99109.50
2022-09-14T05:47:37.090Z,99105.06
2022-09-14T05:50:09.714Z,99105.56
2022-09-14T05:52:37.814Z,99107.97
2022-09-14T05:55:07.283Z,99099.56
2022-09-14T05:57:35.498Z,99104.34
2022-09-14T06:00:04.523Z,99100.25
2022-09-14T06:02:32.755Z,99096.00
2022-09-14T06:05:01.031Z,99099.28
2022-09-14T06:07:31.022Z,99100.13
2022-09-14T06:09:59.143Z,99097.94
2022-09-14T06:12:27.616Z,99099.88
2022-09-14T06:14:55.810Z,99088.53
2022-09-14T06:17:23.927Z,99094.28
2022-09-14T06:19:52.207Z,99087.06
2022-09-14T06:22:20.396Z,99078.47
2022-09-14T06:24:49.879Z,99088.16
2022-09-14T06:27:18.545Z,99081.06
2022-09-14T06:29:52.000Z,99081.88
2022-09-14T06:32:20.739Z,99087.34
2022-09-14T06:34:48.850Z,99087.47
2022-09-14T06:37:17.187Z,99079.44
2022-09-14T06:39:46.030Z,99079.44
2022-09-14T06:42:15.813Z,99077.13
2022-09-14T06:44:43.927Z,99069.22
2022-09-14T06:47:12.162Z,99082.66
2022-09-14T06:49:40.285Z,99080.69
2022-09-14T06:52:08.400Z,99082.63
2022-09-14T06:54:38.270Z,99084.47
2022-09-14T06:57:07.491Z,99088.91
2022-09-14T06:59:37.194Z,99081.97
2022-09-14T07:02:05.709Z,99080.81
2022-09-14T07:04:33.820Z,99092.47
2022-09-14T07:07:01.943Z,99086.88
2022-09-14T07:09:31.986Z,99087.84
2022-09-14T07:12:00.078Z,99084.84
2022-09-14T07:14:32.006Z,99072.41
2022-09-14T07:17:01.978Z,99074.19
2022-09-14T07:19:30.206Z,99070.38
2022-09-14T07:21:58.282Z,99077.16
2022-09-14T07:24:26.478Z,99061.97
2022-09-14T07:26:54.603Z,99059.06
2022-09-14T07:29:23.084Z,99067.00
2022-09-14T07:31:54.022Z,99024.91
2022-09-14T07:34:24.029Z,99063.56
2022-09-14T07:36:52.132Z,99058.50
2022-09-14T07:39:20.502Z,99059.31
2022-09-14T07:41:49.136Z,99060.13
2022-09-14T07:44:18.694Z,99050.59
2022-09-14T07:46:47.517Z,99041.31
2022-09-14T07:49:16.394Z,99035.97
2022-09-14T07:51:46.311Z,99049.09
2022-09-14T07:54:16.543Z,99062.53
2022-09-14T07:56:45.508Z,99048.66
2022-09-14T08:02:02.815Z,99048.38
2022-09-14T08:04:31.016Z,99042.09
2022-09-14T08:07:02.257Z,99044.81
2022-09-14T08:09:30.671Z,99053.69
2022-09-14T08:11:58.971Z,99053.44
2022-09-14T08:14:29.910Z,99051.19
2022-09-14T08:16:58.174Z,99043.84
2022-09-14T08:19:28.011Z,99047.66
2022-09-14T08:21:56.335Z,99038.03
2022-09-14T08:24:25.887Z,99037.22
2022-09-14T08:26:54.053Z,99026.25
2022-09-14T08:29:22.519Z,99029.84
2022-09-14T08:31:52.069Z,99020.13
2022-09-14T08:34:21.454Z,99029.47
2022-09-14T08:36:50.125Z,99028.44
2022-09-14T08:39:18.899Z,99026.69
2022-09-14T08:41:53.698Z,99025.19
2022-09-14T08:44:26.055Z,99023.19
2022-09-14T08:46:59.885Z,99022.72
2022-09-14T08:49:38.335Z,99027.25
2022-09-14T08:52:07.013Z,99039.03
2022-09-14T08:54:35.147Z,99025.84
2022-09-14T08:57:19.787Z,99037.66
2022-09-14T08:59:56.023Z,99033.94
2022-09-14T09:02:51.507Z,99028.31
2022-09-14T09:05:30.245Z,99030.66
2022-09-14T09:08:05.236Z,99028.31
2022-09-14T09:10:33.635Z,99023.41
2022-09-14T09:13:06.564Z,99027.63
2022-09-14T09:15:37.074Z,99030.78
2022-09-14T09:18:08.432Z,99029.47
2022-09-14T09:20:40.462Z,99027.88
2022-09-14T09:23:13.917Z,99032.75
2022-09-14T09:25:51.436Z,99028.81
2022-09-14T09:28:21.684Z,99019.47
2022-09-14T09:30:49.877Z,99019.47
2022-09-14T09:33:19.466Z,99025.53
2022-09-14T09:35:48.028Z,99023.19
2022-09-14T09:38:19.161Z,99021.06
2022-09-14T09:40:49.822Z,99021.78
2022-09-14T09:43:33.629Z,99030.41
2022-09-14T09:46:09.461Z,99018.94
2022-09-14T09:48:42.066Z,99021.06
2022-09-14T09:51:12.999Z,99021.41
2022-09-14T09:53:48.666Z,99017.31
2022-09-14T09:56:21.939Z,99018.94
2022-09-14T09:58:52.153Z,99011.69
2022-09-14T10:01:23.407Z,99018.25
2022-09-14T10:04:19.173Z,99008.25
2022-09-14T10:06:49.617Z,99010.59
2022-09-14T10:09:19.372Z,99012.00
2022-09-14T10:11:48.546Z,99003.00
2022-09-14T10:14:27.340Z,99009.31
2022-09-14T10:17:06.314Z,99010.59
2022-09-14T10:19:34.646Z,99007.34
2022-09-14T10:22:06.096Z,98998.00
2022-09-14T10:24:36.155Z,99017.59
2022-09-14T10:27:37.119Z,99022.41
2022-09-14T10:30:12.420Z,99015.72
2022-09-14T10:32:42.600Z,99020.41
2022-09-14T10:35:14.707Z,99014.53
2022-09-14T10:37:52.712Z,99011.16
2022-09-14T10:40:23.152Z,99018.53
2022-09-14T10:42:59.006Z,99009.19
2022-09-14T10:45:31.662Z,99010.47
2022-09-14T10:48:26.760Z,99014.31
2022-09-14T10:51:01.241Z,98997.00
2022-09-14T10:53:42.874Z,99015.94
2022-09-14T10:56:15.669Z,99021.28
2022-09-14T10:59:10.910Z,99018.84
2022-09-14T11:02:01.710Z,99020.59
2022-09-14T11:04:48.703Z,99013.47
2022-09-14T11:07:20.789Z,99015.94
2022-09-14T11:09:56.919Z,99016.66
2022-09-14T11:12:29.720Z,99017.38
2022-09-14T11:15:08.401Z,99019.81
2022-09-14T11:17:47.449Z,99013.47
2022-09-14T11:20:25.801Z,99020.22
2022-09-14T11:23:00.695Z,99012.53
2022-09-14T11:25:45.325Z,99013.22
2022-09-14T11:28:18.036Z,99003.88
2022-09-14T11:30:49.569Z,99004.31
2022-09-14T11:33:23.247Z,99004.56
2022-09-14T11:35:56.276Z,99004.56
2022-09-14T11:38:28.439Z,98998.84
2022-09-14T11:40:59.111Z,98997.56
2022-09-14T11:43:31.170Z,99004.34
2022-09-14T11:46:06.533Z,99004.69
2022-09-14T11:48:43.057Z,99001.09
2022-09-14T11:51:16.786Z,98995.34
2022-09-14T11:53:45.191Z,98992.06
2022-09-14T11:56:26.453Z,98995.22
2022-09-14T11:58:56.723Z,99004.78
2022-09-14T12:01:33.703Z,98996.38
2022-09-14T12:04:21.012Z,98991.75
2022-09-14T12:06:57.091Z,98994.66
2022-09-14T12:09:55.117Z,98988.44
2022-09-14T12:12:44.287Z,98977.94
2022-09-14T12:15:34.806Z,98982.47
2022-09-14T12:18:30.930Z,98987.97
2022-09-14T12:21:05.699Z,98985.75
2022-09-14T12:23:51.886Z,98991.69
2022-09-14T12:26:31.245Z,98980.25
2022-09-14T12:29:04.857Z,98985.88
2022-09-14T12:31:40.639Z,98983.03
2022-09-14T12:34:27.703Z,98988.16
2022-09-14T12:37:05.727Z,98972.34
2022-09-14T12:39:37.142Z,98982.28
2022-09-14T12:42:25.307Z,98983.59
2022-09-14T12:44:56.486Z,98981.34
2022-09-14T12:47:55.596Z,98981.56
2022-09-14T12:50:23.962Z,98962.56
2022-09-14T12:53:16.335Z,98968.38
2022-09-14T12:55:48.695Z,98962.91
2022-09-14T12:58:37.355Z,98969.59
2022-09-14T13:01:24.911Z,98967.63
2022-09-14T13:03:54.692Z,98967.97
2022-09-14T13:06:23.841Z,98972.56
2022-09-14T13:08:56.241Z,98972.94
2022-09-14T13:11:28.647Z,98963.56
2022-09-14T13:13:57.756Z,98961.13
2022-09-14T13:16:35.327Z,98966.84
2022-09-14T13:19:10.078Z,98950.63
2022-09-14T13:21:53.627Z,98959.59
2022-09-14T13:24:30.150Z,98963.56
2022-09-14T13:27:00.167Z,98963.13
2022-09-14T13:29:29.197Z,98967.56
2022-09-14T13:32:03.319Z,98958.75
2022-09-14T13:34:34.480Z,98962.41
2022-09-14T13:37:02.859Z,98965.56
2022-09-14T13:39:34.818Z,98965.09
2022-09-14T13:42:04.925Z,98957.84
2022-09-14T13:44:35.192Z,98954.22
2022-09-14T13:47:05.847Z,98955.50
2022-09-14T13:49:35.743Z,98951.63
2022-09-14T13:52:50.136Z,98944.38
2022-09-14T13:55:24.730Z,98945.31
2022-09-14T13:58:16.174Z,98951.16
2022-09-14T14:00:59.607Z,98961.13
2022-09-14T14:03:37.630Z,98957.84
2022-09-14T14:06:22.812Z,98968.25
2022-09-14T14:09:01.528Z,98961.03
2022-09-14T14:11:35.326Z,98965.00
2022-09-14T14:14:14.570Z,98964.19
2022-09-14T14:16:43.033Z,98968.16
2022-09-14T14:19:29.700Z,98965.00
2022-09-14T14:22:13.240Z,98963.34
2022-09-14T14:25:09.222Z,98966.88
2022-09-14T14:27:34.923Z,98958.47
2022-09-14T14:30:05.548Z,98962.44
2022-09-14T14:32:33.643Z,98964.78
2022-09-14T14:35:06.125Z,98961.50
2022-09-14T14:37:36.126Z,98957.78
2022-09-14T14:40:04.513Z,98950.09
2022-09-14T14:42:34.397Z,98955.56
2022-09-14T14:45:02.555Z,98953.13
2022-09-14T14:47:33.524Z,98950.31
2022-09-14T14:50:04.067Z,98957.91
2022-09-14T14:52:32.660Z,98957.91
2022-09-14T14:55:01.378Z,98960.25
2022-09-14T14:57:33.268Z,98961.06
2022-09-14T15:00:01.429Z,98956.16
2022-09-14T15:02:30.136Z,98955.25
2022-09-14T15:04:59.979Z,98953.59
2022-09-14T15:07:28.149Z,98951.28
2022-09-14T15:09:58.642Z,98945.66
2022-09-14T15:12:26.867Z,98952.88
2022-09-14T15:14:56.420Z,98949.41
2022-09-14T15:17:24.765Z,98948.22
2022-09-14T15:19:53.783Z,98954.53
2022-09-14T15:22:22.077Z,98962.03
2022-09-14T15:24:50.299Z,98949.63
2022-09-14T15:27:18.582Z,98954.31
2022-09-14T15:29:46.731Z,98960.16
2022-09-14T15:32:16.270Z,98954.91
2022-09-14T15:34:44.491Z,98958.91
2022-09-14T15:37:12.691Z,98962.03
2022-09-14T15:39:40.910Z,98950.81
2022-09-14T15:42:09.278Z,98950.09
2022-09-14T15:44:37.437Z,98938.78
2022-09-14T15:47:05.974Z,98948.03
2022-09-14T15:49:35.610Z,98943.56
2022-09-14T15:52:04.134Z,98938.69
2022-09-14T15:54:33.818Z,98937.03
2022-09-14T15:57:03.667Z,98941.00
2022-09-14T15:59:32.011Z,98946.41
2022-09-14T16:02:00.300Z,98947.78
2022-09-14T16:04:28.722Z,98938.94
2022-09-14T16:07:00.928Z,98939.75
2022-09-14T16:09:29.247Z,98938.94
2022-09-14T16:12:01.629Z,98930.97
2022-09-14T16:14:30.360Z,98932.50
2022-09-14T16:17:01.213Z,98929.94
2022-09-14T16:19:29.878Z,98941.50
2022-09-14T16:22:01.974Z,98932.94
2022-09-14T16:24:30.336Z,98928.84
2022-09-14T16:26:58.981Z,98927.94
2022-09-14T16:29:27.516Z,98929.09
2022-09-14T16:31:55.894Z,98931.88
2022-09-14T16:34:28.771Z,98932.59
2022-09-14T16:36:58.877Z,98920.09
2022-09-14T16:39:30.163Z,98917.28
2022-09-14T16:42:00.123Z,98917.16
2022-09-14T16:44:29.529Z,98917.16
2022-09-14T16:46:59.818Z,98911.69
2022-09-14T16:49:28.641Z,98906.44
2022-09-14T16:51:57.152Z,98905.16
2022-09-14T16:54:26.556Z,98906.44
2022-09-14T16:56:58.217Z,98903.16
2022-09-14T16:59:26.768Z,98900.34
2022-09-14T17:01:55.652Z,98902.72
2022-09-14T17:04:24.722Z,98898.97
2022-09-14T17:06:53.415Z,98899.31
2022-09-14T17:09:23.431Z,98905.25
2022-09-14T17:11:52.232Z,98903.16
2022-09-14T17:14:23.967Z,98904.81
2022-09-14T17:16:52.270Z,98900.03
2022-09-14T17:19:21.021Z,98900.03
2022-09-14T17:21:50.543Z,98902.47
2022-09-14T17:24:19.478Z,98891.13
2022-09-14T17:26:48.941Z,98898.38
2022-09-14T17:29:17.607Z,98901.53
2022-09-14T17:31:47.628Z,98892.91
2022-09-14T17:34:18.585Z,98899.66
2022-09-14T17:36:47.382Z,98894.06
2022-09-14T17:39:16.881Z,98901.41
2022-09-14T17:41:45.970Z,98896.63
2022-09-14T17:44:16.484Z,98887.75
2022-09-14T17:46:52.009Z,98888.44
2022-09-14T17:49:23.954Z,98889.16
2022-09-14T17:51:54.171Z,98879.72
2022-09-14T17:54:22.347Z,98874.94
2022-09-14T17:56:51.536Z,98878.41
2022-09-14T17:59:21.775Z,98871.75
2022-09-14T18:01:51.164Z,98868.63
2022-09-14T18:04:20.772Z,98864.66
2022-09-14T18:06:53.767Z,98860.66
2022-09-14T18:09:24.452Z,98852.97
2022-09-14T18:11:56.227Z,98854.13
2022-09-14T18:14:25.148Z,98858.47
2022-09-14T18:16:53.404Z,98852.53
2022-09-14T18:19:22.527Z,98853.19
2022-09-14T18:21:53.094Z,98842.94
2022-09-14T18:24:23.095Z,98856.47
2022-09-14T18:26:52.058Z,98856.47
2022-09-14T18:29:23.395Z,98847.72
2022-09-14T18:31:52.250Z,98846.78
2022-09-14T18:34:22.371Z,98847.97
2022-09-14T18:36:54.406Z,98843.19
2022-09-14T18:39:23.117Z,98842.69
2022-09-14T18:41:53.811Z,98824.47
2022-09-14T18:44:23.374Z,98831.16
2022-09-14T18:46:51.960Z,98814.59
2022-09-14T18:49:22.320Z,98830.06
2022-09-14T18:51:50.687Z,98826.41
2022-09-14T18:54:24.247Z,98823.22
2022-09-14T18:56:56.033Z,98826.09
2022-09-14T18:59:24.737Z,98830.28
2022-09-14T19:01:53.822Z,98819.25
2022-09-14T19:04:23.434Z,98820.72
2022-09-14T19:06:52.679Z,98818.63
2022-09-14T19:09:22.804Z,98811.84
2022-09-14T19:11:51.325Z,98806.25
2022-09-14T19:14:21.333Z,98803.53
2022-09-14T19:16:51.615Z,98811.56
2022-09-14T19:19:20.135Z,98808.56
2022-09-14T19:21:49.116Z,98801.53
2022-09-14T19:24:38.298Z,98799.22
2022-09-14T19:27:33.548Z,98797.53
2022-09-14T19:30:04.317Z,98802.91
2022-09-14T19:32:35.839Z,98795.78
2022-09-14T19:35:05.247Z,98789.28
2022-09-14T19:37:34.608Z,98777.00
2022-09-14T19:40:06.219Z,98782.97
2022-09-14T19:42:39.737Z,98775.47
2022-09-14T19:45:09.068Z,98771.16
2022-09-14T19:47:37.194Z,98771.53
2022-09-14T19:50:06.099Z,98779.94
2022-09-14T19:52:34.485Z,98767.44
2022-09-14T19:55:02.666Z,98766.38
2022-09-14T19:57:32.051Z,98764.75
2022-09-14T20:00:01.688Z,98763.13
2022-09-14T20:02:31.983Z,98758.22
2022-09-14T20:05:00.328Z,98758.59
2022-09-14T20:07:28.738Z,98762.06
2022-09-14T20:09:56.891Z,98768.59
2022-09-14T20:12:25.099Z,98766.06
2022-09-14T20:14:53.810Z,98767.09
2022-09-14T20:17:23.390Z,98768.28
2022-09-14T20:19:51.493Z,98754.97
2022-09-14T20:22:20.078Z,98764.75
2022-09-14T20:24:48.290Z,98759.06
2022-09-14T20:27:16.396Z,98750.31
2022-09-14T20:29:44.689Z,98746.81
2022-09-14T20:32:17.322Z,98752.19
2022-09-14T20:34:49.665Z,98749.59
2022-09-14T20:37:17.941Z,98747.16
2022-09-14T20:39:46.146Z,98743.31
2022-09-14T20:42:14.463Z,98744.00
2022-09-14T20:44:42.618Z,98742.72
2022-09-14T20:47:10.745Z,98732.31
2022-09-14T20:49:39.195Z,98725.09
2022-09-14T20:52:08.726Z,98722.53
2022-09-14T20:54:36.971Z,98726.28
2022-09-14T20:57:05.356Z,98719.75
2022-09-14T20:59:33.483Z,98725.13
2022-09-14T21:02:05.568Z,98718.81
2022-09-14T21:04:35.897Z,98723.13
2022-09-14T21:07:04.051Z,98715.19
2022-09-14T21:09:36.320Z,98711.91
2022-09-14T21:12:04.671Z,98707.84
2022-09-14T21:14:32.802Z,98704.34
2022-09-14T21:17:00.943Z,98704.81
2022-09-14T21:19:29.575Z,98701.31
2022-09-14T21:21:58.162Z,98708.22
2022-09-14T21:24:26.895Z,98701.44
2022-09-14T21:26:57.354Z,98700.03
2022-09-14T21:29:25.625Z,98701.66
2022-09-14T21:31:53.977Z,98696.19
2022-09-14T21:34:22.227Z,98693.13
2022-09-14T21:36:52.026Z,98695.91
2022-09-14T21:39:23.480Z,98694.66
2022-09-14T21:41:57.511Z,98689.16
2022-09-14T21:44:31.511Z,98691.50
2022-09-14T21:46:59.786Z,98688.94
2022-09-14T21:49:27.954Z,98690.22
2022-09-14T21:51:56.224Z,98685.69
2022-09-14T21:54:24.536Z,98696.88
2022-09-14T21:56:54.131Z,98694.34
2022-09-14T21:59:23.514Z,98682.19
2022-09-14T22:01:53.566Z,98687.09
2022-09-14T22:04:23.097Z,98678.22
2022-09-14T22:06:53.445Z,98678.22
2022-09-14T22:09:23.071Z,98674.97
2022-09-14T22:11:51.220Z,98669.38
2022-09-14T22:14:23.620Z,98672.19
2022-09-14T22:16:53.967Z,98657.13
2022-09-14T22:19:24.277Z,98672.63
2022-09-14T22:21:53.233Z,98674.75
2022-09-14T22:24:23.205Z,98665.16
2022-09-14T22:26:51.640Z,98665.97
2022-09-14T22:29:20.067Z,98667.59
2022-09-14T22:31:48.623Z,98658.63
2022-09-14T22:34:21.526Z,98666.34
2022-09-14T22:36:49.607Z,98655.94
2022-09-14T22:39:17.803Z,98655.81
2022-09-14T22:41:47.574Z,98644.63
2022-09-14T22:44:15.773Z,98651.16
2022-09-14T22:46:44.846Z,98651.16
2022-09-14T22:49:13.324Z,98650.34
2022-09-14T22:51:42.849Z,98636.00
2022-09-14T22:54:10.938Z,98646.47
2022-09-14T22:56:40.749Z,98645.56
2022-09-14T22:59:11.190Z,98641.59
2022-09-14T23:01:43.263Z,98636.22
2022-09-14T23:04:13.242Z,98637.53
2022-09-14T23:06:44.060Z,98640.44
2022-09-14T23:09:15.088Z,98639.28
2022-09-14T23:11:44.835Z,98645.56
2022-09-14T23:14:13.163Z,98635.19
2022-09-14T23:16:41.309Z,98628.88
2022-09-14T23:19:09.675Z,98638.56
2022-09-14T23:21:37.773Z,98628.66
2022-09-14T23:24:08.449Z,98626.44
2022-09-14T23:26:36.696Z,98628.75
2022-09-14T23:29:09.224Z,98630.50
2022-09-14T23:31:37.668Z,98640.19
2022-09-14T23:34:06.688Z,98636.91
2022-09-14T23:36:35.044Z,98625.28
2022-09-14T23:39:03.546Z,98631.31
2022-09-14T23:41:34.075Z,98633.78
2022-09-14T23:44:02.352Z,98632.03
2022-09-14T23:46:30.712Z,98626.44
2022-09-14T23:48:59.035Z,98629.69
2022-09-14T23:51:27.343Z,98629.69
2022-09-14T23:53:55.602Z,98632.03
2022-09-14T23:56:23.818Z,98628.53
2022-09-14T23:58:53.331Z,98633.41
